Time;durP1;ratioP1;P1;durP2;ratioP2;P2;SDS_P1;SDS_P2;PMS_P1;PMS_P2;Temp;Humidity;BMP_temperature;BMP_pressure;BME280_temperature;BME280_humidity;BME280_pressure;Samples;Min_cycle;Max_cycle;Signal;HPM_P1;HPM_P2
2022/04/24 00:01:38;;;;;;;46.23;31.10;;;;;;;6.70;77.86;97921.58;2189648;81;20967;-85
2022/04/24 00:04:39;;;;;;;39.80;28.52;;;;;;;6.70;78.31;97925.48;2186142;81;21062;-85
2022/04/24 00:07:41;;;;;;;47.43;31.97;;;;;;;6.72;78.52;97917.00;2215240;80;21471;-84
2022/04/24 00:10:43;;;;;;;45.80;30.45;;;;;;;6.73;79.14;97917.31;2189531;80;20972;-84
2022/04/24 00:13:45;;;;;;;38.28;27.27;;;;;;;6.78;79.41;97914.21;2202426;80;21003;-88
2022/04/24 00:16:46;;;;;;;33.13;25.82;;;;;;;6.75;78.91;97911.45;2169856;81;21012;-84
2022/04/24 00:19:48;;;;;;;36.35;26.48;;;;;;;6.76;78.74;97913.05;2084507;84;20968;-88
2022/04/24 00:22:50;;;;;;;31.93;24.07;;;;;;;6.78;78.80;97909.81;2095479;84;21054;-88
2022/04/24 00:25:52;;;;;;;27.93;22.42;;;;;;;6.80;78.72;97905.23;2102728;83;21037;-84
2022/04/24 00:28:53;;;;;;;25.60;20.12;;;;;;;6.76;78.31;97896.14;2105065;84;21001;-85
2022/04/24 00:31:55;;;;;;;30.05;21.65;;;;;;;6.61;77.87;97895.31;2111372;84;21047;-84
2022/04/24 00:34:57;;;;;;;24.98;21.33;;;;;;;6.53;77.69;97900.08;2093669;84;21279;-90
2022/04/24 00:37:58;;;;;;;32.93;23.62;;;;;;;6.46;77.80;97888.73;2107162;83;21015;-89
2022/04/24 00:41:00;;;;;;;29.92;22.25;;;;;;;6.45;78.01;97883.72;2113058;82;21055;-89
2022/04/24 00:44:02;;;;;;;28.83;21.52;;;;;;;6.27;78.11;97879.60;2102999;84;21010;-85
2022/04/24 00:47:04;;;;;;;26.15;20.90;;;;;;;6.14;78.09;97880.67;2119100;84;21049;-84
2022/04/24 00:50:06;;;;;;;27.15;20.08;;;;;;;6.12;78.51;97887.80;2143066;81;21465;-88
2022/04/24 00:53:07;;;;;;;23.73;19.87;;;;;;;6.12;78.52;97885.20;2180014;81;21021;-89
2022/04/24 00:56:09;;;;;;;28.40;21.30;;;;;;;6.10;78.13;97892.38;2096219;84;20997;-88
2022/04/24 00:59:11;;;;;;;25.32;20.55;;;;;;;5.95;77.92;97888.41;2126558;82;21073;-87
2022/04/24 01:02:13;;;;;;;28.85;22.32;;;;;;;5.91;78.70;97890.20;2111498;84;22081;-87
2022/04/24 01:05:17;;;;;;;26.60;21.65;;;;;;;5.84;78.78;97883.53;2093305;85;21062;-87
2022/04/24 01:08:18;;;;;;;28.80;21.73;;;;;;;5.84;78.65;97884.02;2105266;84;21510;-88
2022/04/24 01:11:20;;;;;;;28.83;22.22;;;;;;;5.85;78.99;97885.18;2110198;83;21001;-89
2022/04/24 01:14:21;;;;;;;30.25;21.33;;;;;;;5.89;79.21;97885.14;2131432;82;21822;-89
2022/04/24 01:17:23;;;;;;;27.22;19.70;;;;;;;5.89;79.50;97883.84;2105052;82;20958;-85
2022/04/24 01:20:25;;;;;;;23.38;18.55;;;;;;;5.91;79.95;97872.81;2126568;83;20997;-87
2022/04/24 01:23:26;;;;;;;27.70;21.77;;;;;;;5.89;79.74;97875.24;2095536;84;21043;-88
2022/04/24 01:26:28;;;;;;;28.80;22.40;;;;;;;5.69;79.20;97873.06;2141662;82;21086;-87
2022/04/24 01:29:29;;;;;;;41.37;28.10;;;;;;;5.40;79.17;97877.55;2096030;84;21575;-87
2022/04/24 01:32:32;;;;;;;37.23;25.52;;;;;;;5.25;79.89;97879.20;2116822;82;21073;-88
2022/04/24 01:35:33;;;;;;;35.80;26.35;;;;;;;5.12;80.48;97879.73;2146588;81;21125;-85
2022/04/24 01:38:35;;;;;;;35.48;26.35;;;;;;;5.12;81.21;97874.54;2127164;84;21472;-88
2022/04/24 01:41:37;;;;;;;38.30;26.48;;;;;;;5.21;81.03;97873.20;2126462;83;21064;-86
2022/04/24 01:44:39;;;;;;;41.58;28.02;;;;;;;5.20;81.06;97862.01;2143060;83;20985;-88
2022/04/24 01:47:40;;;;;;;43.13;28.65;;;;;;;5.05;80.88;97867.08;2180680;80;21428;-89
2022/04/24 01:50:42;;;;;;;39.78;26.25;;;;;;;4.91;81.18;97866.44;2176929;80;20982;-87
2022/04/24 01:53:44;;;;;;;37.60;28.30;;;;;;;4.84;82.15;97863.69;2171854;81;21045;-89
2022/04/24 01:56:46;;;;;;;45.88;28.30;;;;;;;4.95;82.62;97866.45;2128584;83;21012;-87
2022/04/24 01:59:47;;;;;;;45.17;28.98;;;;;;;5.02;82.08;97865.28;2172643;81;20961;-88
2022/04/24 02:02:49;;;;;;;78.80;37.88;;;;;;;4.98;81.51;97867.91;2168282;81;21023;-89
2022/04/24 02:05:51;;;;;;;58.68;32.03;;;;;;;4.94;81.50;97864.00;2178087;80;20965;-89
2022/04/24 02:08:53;;;;;;;40.38;27.02;;;;;;;4.91;81.82;97860.45;2181053;80;20968;-89
2022/04/24 02:11:54;;;;;;;32.28;24.63;;;;;;;4.90;81.39;97863.53;2182104;81;21056;-88
2022/04/24 02:14:56;;;;;;;33.75;24.45;;;;;;;4.87;81.28;97856.09;2149117;82;21020;-88
2022/04/24 02:17:57;;;;;;;28.92;23.45;;;;;;;4.90;81.45;97867.91;2158844;82;21051;-88
2022/04/24 02:20:59;;;;;;;34.60;24.40;;;;;;;4.95;81.50;97859.16;2158856;81;20979;-88
2022/04/24 02:24:01;;;;;;;31.57;22.65;;;;;;;4.87;81.35;97864.36;2206361;80;21028;-89
2022/04/24 02:27:02;;;;;;;31.02;23.20;;;;;;;4.79;81.60;97859.49;2187125;81;21474;-85
2022/04/24 02:30:04;;;;;;;32.60;24.52;;;;;;;4.75;81.49;97858.19;2184437;81;20948;-87
2022/04/24 02:33:06;;;;;;;31.37;23.02;;;;;;;4.77;82.04;97859.34;2181744;80;20984;-86
2022/04/24 02:36:07;;;;;;;38.00;25.97;;;;;;;4.78;81.89;97855.77;2183027;80;21016;-87
2022/04/24 02:39:09;;;;;;;59.58;32.05;;;;;;;4.73;81.92;97859.33;2175455;81;20965;-86
2022/04/24 02:42:12;;;;;;;68.17;34.92;;;;;;;4.53;81.82;97857.06;2177948;81;21124;-85
2022/04/24 02:45:13;;;;;;;53.85;30.88;;;;;;;4.50;82.39;97849.63;2166028;82;21135;-87
2022/04/24 02:48:15;;;;;;;54.45;32.98;;;;;;;4.51;81.76;97846.54;2152682;82;21661;-86
2022/04/24 02:51:17;;;;;;;56.85;34.43;;;;;;;4.18;80.99;97845.20;2169857;81;20978;-87
2022/04/24 02:54:19;;;;;;;39.42;28.32;;;;;;;3.88;81.38;97835.45;2166243;81;20964;-84
2022/04/24 02:57:21;;;;;;;47.88;29.20;;;;;;;3.68;82.08;97834.91;2170093;82;21052;-88
2022/04/24 03:00:24;;;;;;;44.45;31.25;;;;;;;3.49;83.08;97830.80;2165340;82;21033;-87
2022/04/24 03:03:26;;;;;;;40.17;29.52;;;;;;;3.53;83.98;97830.00;2165490;81;21072;-87
2022/04/24 03:06:27;;;;;;;42.25;28.15;;;;;;;3.59;84.39;97833.27;2167413;82;21016;-87
2022/04/24 03:09:29;;;;;;;40.08;27.55;;;;;;;3.55;84.37;97828.05;2168241;82;20973;-84
2022/04/24 03:12:31;;;;;;;37.85;27.32;;;;;;;3.53;84.75;97820.94;2156547;82;21031;-87
2022/04/24 03:15:32;;;;;;;39.38;28.27;;;;;;;3.50;84.63;97819.97;2162223;82;21171;-85
2022/04/24 03:18:34;;;;;;;39.92;26.93;;;;;;;3.40;84.46;97816.20;2135747;82;21021;-87
2022/04/24 03:21:36;;;;;;;39.67;28.35;;;;;;;3.35;85.02;97810.19;2160452;81;21044;-87
2022/04/24 03:24:37;;;;;;;42.45;28.98;;;;;;;3.30;85.24;97815.04;2177464;81;21003;-82
2022/04/24 03:27:39;;;;;;;44.38;29.10;;;;;;;3.20;84.47;97810.47;2181048;81;20962;-82
2022/04/24 03:30:41;;;;;;;39.05;27.65;;;;;;;3.01;84.76;97815.84;2156898;82;21008;-84
2022/04/24 03:33:43;;;;;;;36.70;26.50;;;;;;;2.93;85.89;97812.75;2132580;84;21949;-87
2022/04/24 03:36:44;;;;;;;41.85;26.33;;;;;;;3.12;86.34;97818.19;2146995;82;21072;-83
2022/04/24 03:39:46;;;;;;;35.63;25.80;;;;;;;3.32;86.23;97809.70;2165064;82;21061;-89
2022/04/24 03:42:48;;;;;;;44.63;29.37;;;;;;;3.41;86.35;97810.88;2149524;81;21037;-83
2022/04/24 03:45:49;;;;;;;38.60;26.15;;;;;;;3.18;86.30;97808.50;2144114;82;21056;-88
2022/04/24 03:48:51;;;;;;;39.90;27.70;;;;;;;3.05;86.76;97812.81;2165258;81;21005;-86
2022/04/24 03:51:53;;;;;;;35.90;26.80;;;;;;;3.03;87.28;97811.35;2167379;81;20975;-87
2022/04/24 03:54:54;;;;;;;38.25;27.17;;;;;;;3.08;88.32;97809.91;2156654;82;21008;-86
2022/04/24 03:57:56;;;;;;;39.80;28.83;;;;;;;3.50;89.48;97816.89;2167991;81;20917;-85
2022/04/24 04:00:58;;;;;;;33.50;27.50;;;;;;;4.10;89.30;97808.92;2166063;82;21072;-88
2022/04/24 04:04:01;;;;;;;38.83;27.15;;;;;;;4.81;88.64;97812.64;2164511;82;21074;-88
2022/04/24 04:07:03;;;;;;;35.30;27.82;;;;;;;5.36;86.91;97809.24;2165255;82;21087;-87
2022/04/24 04:10:06;;;;;;;32.05;26.68;;;;;;;6.07;86.34;97803.06;2164042;82;21092;-89
2022/04/24 04:13:08;;;;;;;32.73;26.05;;;;;;;6.83;85.54;97803.39;2167842;81;21069;-89
2022/04/24 04:16:10;;;;;;;31.97;26.70;;;;;;;7.67;84.32;97807.00;2167106;81;21525;-85
2022/04/24 04:19:11;;;;;;;29.25;24.37;;;;;;;8.37;81.33;97811.58;2160644;81;21057;-85
2022/04/24 04:22:13;;;;;;;30.70;24.02;;;;;;;8.96;79.79;97812.55;2165480;82;21052;-86
2022/04/24 04:25:15;;;;;;;31.52;25.32;;;;;;;9.62;79.21;97810.28;2166123;81;21552;-87
2022/04/24 04:28:16;;;;;;;29.23;24.57;;;;;;;10.35;77.33;97811.02;2164166;81;22386;-87
2022/04/24 04:31:18;;;;;;;28.83;24.00;;;;;;;11.31;73.55;97822.61;2166020;82;21062;-89
2022/04/24 04:34:20;;;;;;;29.65;24.35;;;;;;;11.31;73.55;97822.61;2156880;82;21069;-90
2022/04/24 04:37:21;;;;;;;29.48;24.52;;;;;;;11.76;72.31;97820.55;2158633;82;21115;-89
2022/04/24 04:40:23;;;;;;;31.30;24.90;;;;;;;12.06;71.02;97828.70;2167988;81;21057;-85
2022/04/24 04:43:25;;;;;;;29.40;26.25;;;;;;;12.33;69.57;97831.98;2164432;80;21163;-89
2022/04/24 04:46:26;;;;;;;30.85;25.00;;;;;;;12.57;68.45;97837.78;2163356;81;21022;-82
2022/04/24 04:49:28;;;;;;;31.33;26.00;;;;;;;12.73;66.87;97828.58;2152323;81;20940;-86
2022/04/24 04:52:30;;;;;;;32.50;25.50;;;;;;;12.87;65.77;97834.00;2129769;84;20949;-89
2022/04/24 04:55:31;;;;;;;34.38;26.17;;;;;;;12.83;65.30;97828.90;2128302;83;21001;-87
2022/04/24 04:58:33;;;;;;;33.90;25.85;;;;;;;13.10;64.35;97817.12;2158292;81;21524;-84
2022/04/24 05:01:35;;;;;;;27.98;24.30;;;;;;;13.10;64.35;97817.12;2167338;81;21508;-85
2022/04/24 05:04:38;;;;;;;25.43;22.73;;;;;;;12.97;61.25;97821.17;2177714;81;22034;-90
2022/04/24 05:07:40;;;;;;;33.70;23.85;;;;;;;12.38;62.06;97815.10;2163581;81;21062;-88
2022/04/24 05:10:41;;;;;;;28.70;23.18;;;;;;;11.76;61.67;97817.93;2153099;81;21039;-85
2022/04/24 05:13:43;;;;;;;31.93;26.25;;;;;;;11.29;61.81;97818.09;2156350;81;21040;-86
2022/04/24 05:16:45;;;;;;;38.05;28.73;;;;;;;10.88;62.69;97822.30;2170020;81;21016;-88
2022/04/24 05:19:46;;;;;;;36.05;29.27;;;;;;;11.49;63.79;97818.03;2167289;82;20956;-87
2022/04/24 05:22:48;;;;;;;31.20;25.85;;;;;;;11.49;63.79;97818.03;2163768;82;21470;-87
2022/04/24 05:25:50;;;;;;;42.03;28.60;;;;;;;11.79;63.12;97818.30;2147878;83;21615;-91
2022/04/24 05:28:52;;;;;;;35.52;28.42;;;;;;;11.98;63.11;97812.73;2167778;82;20981;-89
2022/04/24 05:31:54;;;;;;;38.35;28.27;;;;;;;12.18;63.15;97812.10;2168137;82;20973;-90
2022/04/24 05:34:56;;;;;;;35.38;26.73;;;;;;;12.50;62.76;97822.06;2164362;82;20997;-87
2022/04/24 05:37:57;;;;;;;30.35;27.00;;;;;;;12.22;61.60;97816.41;2148868;83;21068;-91
2022/04/24 05:40:59;;;;;;;34.33;24.98;;;;;;;12.23;62.63;97816.19;2170115;82;21580;-86
2022/04/24 05:44:01;;;;;;;30.40;24.52;;;;;;;12.46;62.17;97823.52;2165778;82;21084;-85
2022/04/24 05:47:02;;;;;;;34.03;28.12;;;;;;;12.57;61.66;97828.59;2165107;82;21001;-87
2022/04/24 05:50:04;;;;;;;39.55;31.02;;;;;;;12.62;62.77;97834.50;2163130;82;21004;-90
2022/04/24 05:53:06;;;;;;;43.45;33.65;;;;;;;12.86;62.91;97836.85;2163162;82;21060;-90
2022/04/24 05:56:07;;;;;;;41.80;35.60;;;;;;;13.13;62.51;97838.22;2168176;82;20953;-89
2022/04/24 05:59:09;;;;;;;40.08;31.57;;;;;;;13.21;62.16;97844.55;2251971;79;20990;-90
2022/04/24 06:02:11;;;;;;;35.52;29.00;;;;;;;13.34;62.19;97846.23;2252810;79;20951;-90
2022/04/24 06:05:12;;;;;;;31.40;25.75;;;;;;;13.44;62.03;97849.67;2252942;79;21018;-90
2022/04/24 06:08:14;;;;;;;36.13;28.42;;;;;;;13.49;61.92;97846.69;2253006;79;21003;-88
2022/04/24 06:11:17;;;;;;;38.20;29.75;;;;;;;13.47;61.68;97846.63;2252992;79;20955;-85
2022/04/24 06:14:19;;;;;;;41.37;32.28;;;;;;;13.47;61.98;97848.73;2254461;79;21075;-85
2022/04/24 06:17:21;;;;;;;41.08;31.93;;;;;;;13.55;62.52;97845.02;2235842;79;20944;-87
2022/04/24 06:20:22;;;;;;;39.95;31.87;;;;;;;13.62;61.89;97842.61;2221491;80;20922;-88
2022/04/24 06:23:28;;;;;;;34.27;29.45;;;;;;;13.69;62.05;97839.08;2220884;80;21420;-89
2022/04/24 06:26:31;;;;;;;38.92;31.93;;;;;;;13.62;60.86;97838.67;2220409;80;20973;-89
2022/04/24 06:29:33;;;;;;;33.73;26.35;;;;;;;13.51;61.19;97835.95;2222209;80;20983;-85
2022/04/24 06:32:38;;;;;;;21.45;17.95;;;;;;;13.57;60.29;97837.70;2224062;80;20960;-89
2022/04/24 06:35:38;;;;;;;23.32;19.32;;;;;;;13.57;59.63;97823.24;2221852;80;20913;-88
2022/04/24 06:38:40;;;;;;;19.55;16.40;;;;;;;13.69;59.28;97825.42;2221489;79;21490;-91
2022/04/24 06:41:41;;;;;;;22.82;17.25;;;;;;;13.88;58.58;97813.04;2214201;80;21010;-91
2022/04/24 06:44:44;;;;;;;17.37;15.48;;;;;;;14.08;58.58;97804.39;2221242;80;21114;-87
2022/04/24 06:47:45;;;;;;;17.20;15.03;;;;;;;14.21;58.60;97806.02;2221036;80;21060;-90
2022/04/24 06:50:47;;;;;;;21.73;17.42;;;;;;;14.45;57.83;97805.61;2221259;80;21005;-88
2022/04/24 06:53:49;;;;;;;20.80;17.73;;;;;;;14.55;57.09;97805.86;2221025;80;21001;-91
2022/04/24 06:56:50;;;;;;;22.60;20.30;;;;;;;14.60;57.19;97802.01;2192457;80;21045;-88
2022/04/24 06:59:52;;;;;;;25.35;20.43;;;;;;;14.61;56.75;97797.03;2222245;79;21019;-89
2022/04/24 07:02:54;;;;;;;19.52;17.02;;;;;;;14.73;57.43;97803.12;2221173;80;20975;-89
2022/04/24 07:06:00;;;;;;;21.17;18.87;;;;;;;14.92;57.08;97801.70;2221030;80;21062;-91
2022/04/24 07:09:02;;;;;;;26.60;22.05;;;;;;;15.09;57.55;97799.98;2222595;80;20982;-84
2022/04/24 07:12:04;;;;;;;28.47;23.65;;;;;;;15.27;57.74;97798.54;2221247;80;21029;-88
2022/04/24 07:15:05;;;;;;;31.48;22.65;;;;;;;15.29;57.58;97791.70;2221118;80;21006;-89
2022/04/24 07:18:10;;;;;;;27.27;21.05;;;;;;;15.25;57.09;97790.55;2221760;80;21101;-85
2022/04/24 07:21:12;;;;;;;24.45;21.55;;;;;;;15.18;56.86;97782.78;2222233;80;21568;-88
2022/04/24 07:24:14;;;;;;;29.42;23.67;;;;;;;15.05;56.98;97774.59;2220907;80;21026;-89
2022/04/24 07:27:16;;;;;;;26.52;22.52;;;;;;;15.00;57.44;97774.48;2226688;80;21039;-89
2022/04/24 07:30:17;;;;;;;24.82;21.97;;;;;;;15.08;57.15;97778.59;2224472;79;21066;-90
2022/04/24 07:33:19;;;;;;;27.37;23.10;;;;;;;15.16;56.96;97768.20;2221631;80;21031;-85
2022/04/24 07:36:21;;;;;;;29.45;25.65;;;;;;;15.27;56.91;97768.21;2223678;80;21049;-86
2022/04/24 07:39:22;;;;;;;30.10;24.10;;;;;;;15.27;57.33;97772.17;2223533;80;20927;-85
2022/04/24 07:42:24;;;;;;;29.30;24.72;;;;;;;15.42;57.43;97771.66;2223417;80;21539;-86
2022/04/24 07:45:26;;;;;;;20.12;17.87;;;;;;;15.63;57.22;97765.80;2222811;80;21038;-89
2022/04/24 07:48:28;;;;;;;17.92;15.72;;;;;;;15.74;55.81;97760.72;2221131;80;21114;-89
2022/04/24 07:51:29;;;;;;;14.80;13.30;;;;;;;15.83;54.48;97754.83;2221464;80;21550;-90
2022/04/24 07:54:31;;;;;;;15.15;13.45;;;;;;;15.78;51.59;97755.23;2225345;80;21452;-90
2022/04/24 07:57:33;;;;;;;15.70;13.78;;;;;;;15.69;51.80;97750.84;2228982;79;20944;-88
2022/04/24 08:00:35;;;;;;;11.18;10.03;;;;;;;15.70;51.49;97751.66;2229215;80;21541;-89
2022/04/24 08:03:37;;;;;;;15.08;12.60;;;;;;;15.66;50.87;97755.81;2230711;80;21373;-85
2022/04/24 08:06:38;;;;;;;10.72;9.68;;;;;;;15.60;50.11;97749.10;2231370;80;20976;-85
2022/04/24 08:09:41;;;;;;;10.28;9.20;;;;;;;15.63;50.33;97750.46;2229901;80;20968;-90
2022/04/24 08:12:43;;;;;;;12.37;10.60;;;;;;;15.69;49.11;97754.01;2229105;80;21007;-90
2022/04/24 08:15:45;;;;;;;12.03;10.78;;;;;;;15.74;49.75;97749.64;2229174;79;20975;-89
2022/04/24 08:18:47;;;;;;;13.28;11.97;;;;;;;15.69;49.05;97760.09;2227503;79;20935;-89
2022/04/24 08:21:48;;;;;;;14.68;11.60;;;;;;;15.59;49.85;97751.95;2224133;80;20975;-90
2022/04/24 08:24:50;;;;;;;9.98;9.00;;;;;;;15.78;49.55;97751.28;2229463;80;20944;-87
2022/04/24 08:27:52;;;;;;;12.82;9.93;;;;;;;15.81;48.07;97753.44;2230447;80;20952;-88
2022/04/24 08:30:54;;;;;;;10.48;9.43;;;;;;;15.83;49.31;97744.27;2230888;80;21448;-85
2022/04/24 08:33:57;;;;;;;10.32;9.30;;;;;;;15.80;48.19;97747.88;2231529;79;20956;-87
2022/04/24 08:36:59;;;;;;;9.70;8.18;;;;;;;15.79;47.55;97743.64;2258488;79;21074;-85
2022/04/24 08:40:00;;;;;;;8.00;7.30;;;;;;;15.82;48.51;97744.51;2257873;79;20963;-86
2022/04/24 08:43:03;;;;;;;8.73;7.78;;;;;;;15.91;47.53;97740.45;2258024;79;21050;-88
2022/04/24 08:46:04;;;;;;;9.43;8.53;;;;;;;16.03;47.71;97736.42;2257159;79;21486;-87
2022/04/24 08:49:06;;;;;;;8.58;7.67;;;;;;;16.17;46.81;97742.98;2237365;79;20948;-88
2022/04/24 08:52:08;;;;;;;8.33;7.62;;;;;;;16.21;47.36;97738.32;2232937;80;20952;-88
2022/04/24 08:55:09;;;;;;;9.20;8.30;;;;;;;16.27;46.47;97736.55;2232654;79;21036;-86
2022/04/24 08:58:11;;;;;;;7.55;6.83;;;;;;;16.37;47.25;97742.02;2231994;79;20928;-85
2022/04/24 09:01:13;;;;;;;8.95;7.33;;;;;;;16.58;46.89;97739.16;2236231;79;21516;-87
2022/04/24 09:04:15;;;;;;;7.42;6.83;;;;;;;16.84;47.07;97737.73;2257496;79;21633;-88
2022/04/24 09:07:19;;;;;;;7.05;6.35;;;;;;;17.16;45.72;97742.38;2256620;79;22052;-90
2022/04/24 09:10:21;;;;;;;6.90;6.35;;;;;;;17.39;45.40;97741.35;2256153;79;21014;-90
2022/04/24 09:13:23;;;;;;;9.15;8.38;;;;;;;17.39;42.48;97755.38;2256652;79;20991;-86
2022/04/24 09:16:25;;;;;;;8.73;7.62;;;;;;;17.39;45.87;97750.61;2256396;78;21014;-86
2022/04/24 09:19:27;;;;;;;9.98;8.98;;;;;;;17.47;46.20;97749.66;2256551;79;21069;-89
2022/04/24 09:22:28;;;;;;;10.80;9.80;;;;;;;17.46;46.58;97759.14;2256593;79;21046;-89
2022/04/24 09:25:30;;;;;;;11.22;10.18;;;;;;;17.29;46.66;97754.73;2258364;79;20975;-86
2022/04/24 09:28:32;;;;;;;11.50;10.25;;;;;;;17.09;46.39;97750.48;2229561;79;21442;-88
2022/04/24 09:31:34;;;;;;;12.73;11.40;;;;;;;16.78;46.96;97754.03;2229791;79;20928;-88
2022/04/24 09:34:36;;;;;;;12.40;10.90;;;;;;;16.53;48.38;97740.92;2229393;80;20921;-88
2022/04/24 09:37:39;;;;;;;11.90;10.70;;;;;;;16.36;49.43;97740.39;2232861;79;20962;-86
2022/04/24 09:40:41;;;;;;;12.00;10.70;;;;;;;16.23;49.48;97735.96;2231596;80;20968;-85
2022/04/24 09:43:42;;;;;;;11.65;10.45;;;;;;;16.15;50.10;97732.66;2222706;79;20945;-89
2022/04/24 09:46:44;;;;;;;11.25;10.08;;;;;;;16.12;50.18;97727.88;2223171;80;20998;-87
2022/04/24 09:49:47;;;;;;;10.85;9.83;;;;;;;16.15;50.80;97725.27;2232664;79;21415;-88
2022/04/24 09:52:48;;;;;;;12.75;10.45;;;;;;;16.24;50.62;97721.19;2253032;79;21491;-87
2022/04/24 09:55:50;;;;;;;12.58;11.35;;;;;;;16.28;50.36;97708.33;2253891;79;20934;-88
2022/04/24 09:58:52;;;;;;;13.62;11.85;;;;;;;16.39;50.55;97708.23;2252697;79;20951;-89
2022/04/24 10:01:53;;;;;;;12.00;10.80;;;;;;;16.61;50.18;97712.77;2252387;79;21007;-88
2022/04/24 10:04:55;;;;;;;11.48;10.28;;;;;;;16.89;49.63;97705.27;2253151;79;20963;-85
2022/04/24 10:07:57;;;;;;;9.83;8.78;;;;;;;17.12;48.87;97696.31;2253615;79;21054;-87
2022/04/24 10:10:59;;;;;;;9.78;8.88;;;;;;;17.25;48.54;97697.25;2251627;79;20998;-88
2022/04/24 10:14:00;;;;;;;9.63;8.75;;;;;;;17.40;47.75;97682.89;2252351;79;21011;-89
2022/04/24 10:17:02;;;;;;;7.45;6.85;;;;;;;17.50;47.57;97685.64;2252103;79;21022;-90
2022/04/24 10:20:04;;;;;;;6.92;6.22;;;;;;;17.66;47.29;97687.93;2252554;79;21518;-89
2022/04/24 10:23:05;;;;;;;7.28;6.37;;;;;;;17.69;45.75;97680.80;2183746;82;20959;-90
2022/04/24 10:26:07;;;;;;;7.65;6.95;;;;;;;17.63;45.92;97684.44;2183821;82;21022;-88
2022/04/24 10:29:09;;;;;;;7.42;6.72;;;;;;;17.45;46.02;97696.16;2183835;82;21554;-90
2022/04/24 10:32:11;;;;;;;7.00;6.25;;;;;;;17.30;45.64;97693.36;2183631;82;21563;-84
2022/04/24 10:35:13;;;;;;;7.75;7.08;;;;;;;17.21;45.80;97692.20;2184557;82;21082;-89
2022/04/24 10:38:14;;;;;;;6.75;6.15;;;;;;;17.08;46.74;97684.61;2183896;82;21454;-92
2022/04/24 10:41:16;;;;;;;5.83;5.42;;;;;;;16.95;46.21;97683.94;2220178;79;20963;-90
2022/04/24 10:44:18;;;;;;;6.75;6.15;;;;;;;16.91;47.12;97686.78;2213019;80;21061;-90
2022/04/24 10:47:20;;;;;;;6.17;5.67;;;;;;;16.83;47.17;97677.18;2187292;81;21075;-90
2022/04/24 10:50:22;;;;;;;7.42;6.70;;;;;;;16.57;48.26;97670.71;2182693;81;20971;-91
2022/04/24 10:53:23;;;;;;;10.20;9.25;;;;;;;16.49;48.48;97672.72;2184494;82;21066;-86
2022/04/24 10:56:26;;;;;;;9.80;8.90;;;;;;;16.38;49.59;97667.02;2184117;81;20991;-89
2022/04/24 10:59:28;;;;;;;10.00;9.15;;;;;;;16.40;50.17;97652.23;2183566;81;21055;-84
2022/04/24 11:02:33;;;;;;;10.93;9.75;;;;;;;16.24;50.14;97648.56;2184867;81;20963;-84
2022/04/24 11:05:35;;;;;;;9.98;9.08;;;;;;;16.16;50.68;97655.04;2183247;81;21006;-88
2022/04/24 11:08:37;;;;;;;9.38;8.48;;;;;;;16.15;51.17;97658.73;2200544;81;20939;-91
2022/04/24 11:11:38;;;;;;;9.58;8.60;;;;;;;15.97;50.80;97660.80;2191995;81;20967;-90
2022/04/24 11:14:40;;;;;;;9.25;8.35;;;;;;;15.96;51.28;97656.05;2182940;81;21026;-89
2022/04/24 11:17:42;;;;;;;9.90;9.00;;;;;;;16.03;51.59;97655.38;2183530;82;21600;-87
2022/04/24 11:20:43;;;;;;;10.63;9.45;;;;;;;16.04;51.37;97660.93;2184653;82;21034;-87
2022/04/24 11:23:45;;;;;;;9.50;8.70;;;;;;;15.80;52.03;97659.47;2182900;81;21360;-90
2022/04/24 11:26:47;;;;;;;8.38;7.62;;;;;;;15.68;52.85;97668.77;2182426;80;20995;-90
2022/04/24 11:29:49;;;;;;;9.38;8.50;;;;;;;15.53;53.92;97665.81;2184004;82;20978;-89
2022/04/24 11:32:51;;;;;;;9.93;8.80;;;;;;;15.59;54.62;97652.48;2182316;81;21018;-91
2022/04/24 11:35:53;;;;;;;9.73;8.30;;;;;;;15.65;54.62;97648.15;2190941;81;21057;-87
2022/04/24 11:38:56;;;;;;;11.08;9.60;;;;;;;15.84;54.98;97650.05;2155602;81;20954;-90
2022/04/24 11:42:00;;;;;;;8.55;7.75;;;;;;;15.99;54.90;97647.64;2207285;81;21553;-89
2022/04/24 11:51:42;;;;;;;12.30;10.23;;;;;;;16.25;55.20;97640.12;2206516;80;21014;-89
2022/04/24 11:54:45;;;;;;;11.78;10.58;;;;;;;16.18;55.19;97630.53;2203197;81;20971;-87
2022/04/24 11:57:47;;;;;;;12.25;10.35;;;;;;;16.28;55.50;97618.00;2182334;81;20983;-88
2022/04/24 12:00:48;;;;;;;11.30;10.20;;;;;;;16.41;55.67;97611.04;2165238;82;21450;-90
2022/04/24 12:03:50;;;;;;;10.48;9.48;;;;;;;16.58;55.64;97600.44;2182788;82;20940;-88
2022/04/24 12:06:52;;;;;;;9.80;8.90;;;;;;;16.67;55.48;97592.36;2182515;81;21018;-89
2022/04/24 12:09:53;;;;;;;10.70;9.70;;;;;;;16.74;54.65;97592.22;2182484;80;20991;-89
2022/04/24 12:12:55;;;;;;;10.38;9.28;;;;;;;16.68;54.46;97586.06;2182744;82;21624;-88
2022/04/24 12:15:57;;;;;;;10.08;9.10;;;;;;;16.73;54.85;97583.49;2182580;81;21594;-89
2022/04/24 12:18:59;;;;;;;11.95;10.80;;;;;;;16.75;54.73;97588.53;2183252;82;21003;-87
2022/04/24 12:22:00;;;;;;;10.03;9.03;;;;;;;16.60;55.23;97580.38;2184134;81;21423;-89
2022/04/24 12:25:02;;;;;;;11.25;9.18;;;;;;;16.54;55.21;97587.95;2204651;81;21001;-88
2022/04/24 12:28:04;;;;;;;10.70;9.65;;;;;;;16.56;55.69;97584.56;2206524;81;21532;-90
2022/04/24 12:31:09;;;;;;;9.80;8.93;;;;;;;16.49;56.60;97582.09;2206396;81;21420;-90
2022/04/24 12:34:11;;;;;;;9.78;8.78;;;;;;;16.35;56.62;97577.66;2194595;81;21051;-90
2022/04/24 12:37:12;;;;;;;10.43;9.15;;;;;;;16.16;56.85;97585.06;2202332;81;21065;-89
2022/04/24 12:40:14;;;;;;;9.13;8.23;;;;;;;16.07;58.23;97587.03;2206012;81;21009;-87
2022/04/24 12:43:16;;;;;;;9.35;7.47;;;;;;;16.05;59.24;97589.12;2204481;79;20965;-88
2022/04/24 12:46:17;;;;;;;9.60;8.70;;;;;;;15.95;61.43;97602.17;2179784;82;21538;-89
2022/04/24 12:49:19;;;;;;;9.90;8.55;;;;;;;15.83;61.64;97610.18;2176801;81;20945;-88
2022/04/24 12:52:22;;;;;;;10.10;9.05;;;;;;;15.66;62.91;97611.48;2179628;81;20957;-87
2022/04/24 12:55:24;;;;;;;10.03;8.85;;;;;;;15.56;63.85;97605.48;2178106;82;21080;-89
2022/04/24 12:58:26;;;;;;;9.35;8.45;;;;;;;15.43;63.65;97603.13;2150109;82;21061;-89
2022/04/24 13:01:28;;;;;;;10.03;8.90;;;;;;;15.28;63.88;97602.88;2177668;81;21513;-91
2022/04/24 13:04:29;;;;;;;9.23;8.10;;;;;;;15.21;65.13;97600.37;2179754;81;21056;-91
2022/04/24 13:07:31;;;;;;;9.90;8.98;;;;;;;15.13;66.31;97603.39;2180034;82;21641;-90
2022/04/24 13:10:33;;;;;;;11.65;10.55;;;;;;;15.07;66.14;97601.68;2180069;82;21028;-89
2022/04/24 13:13:34;;;;;;;16.87;13.85;;;;;;;14.95;66.88;97597.77;2180037;82;21039;-90
2022/04/24 13:19:56;;;;;;;11.55;10.28;;;;;;;14.61;67.75;97603.41;2188135;81;21076;-90
2022/04/24 13:22:58;;;;;;;13.28;10.43;;;;;;;14.44;70.75;97597.22;2193030;81;20968;-90
2022/04/24 13:26:02;;;;;;;11.40;10.20;;;;;;;14.26;69.53;97594.71;2193195;81;21023;-91
2022/04/24 13:29:03;;;;;;;9.40;8.45;;;;;;;14.13;69.94;97579.96;2193381;81;21003;-91
2022/04/24 13:32:05;;;;;;;12.45;10.48;;;;;;;14.03;70.28;97551.59;2193030;81;21007;-89
2022/04/24 13:35:07;;;;;;;11.97;10.15;;;;;;;13.89;70.69;97544.42;2193339;81;20949;-90
2022/04/24 13:38:18;;;;;;;11.38;9.60;;;;;;;13.87;71.49;97539.11;2193927;81;21036;-90
2022/04/24 13:41:19;;;;;;;11.03;9.28;;;;;;;14.05;71.62;97538.98;2184625;81;21032;-89
2022/04/24 13:44:21;;;;;;;10.82;9.68;;;;;;;14.33;71.72;97539.59;2197287;79;21519;-85
2022/04/24 13:47:23;;;;;;;12.20;10.13;;;;;;;14.53;71.78;97549.77;2225015;80;20964;-85
2022/04/24 13:50:25;;;;;;;11.80;10.00;;;;;;;14.68;71.05;97540.86;2225123;80;21034;-85
2022/04/24 13:53:28;;;;;;;10.00;8.70;;;;;;;14.86;70.44;97533.30;2223192;80;20975;-89
2022/04/24 13:56:30;;;;;;;9.95;8.95;;;;;;;14.88;70.06;97528.59;2222360;80;21036;-88
2022/04/24 13:59:32;;;;;;;10.70;9.40;;;;;;;14.79;69.25;97513.66;2222454;79;20939;-90
2022/04/24 14:02:34;;;;;;;10.20;9.20;;;;;;;14.81;69.33;97509.47;2221328;79;20983;-86
2022/04/24 14:05:37;;;;;;;9.65;8.75;;;;;;;14.68;69.45;97518.98;2226218;79;20971;-85
2022/04/24 14:08:39;;;;;;;12.00;9.85;;;;;;;14.51;69.42;97519.72;2246809;79;21535;-89
2022/04/24 14:11:43;;;;;;;10.50;8.70;;;;;;;14.34;70.31;97508.27;2222700;79;21503;-89
2022/04/24 14:14:44;;;;;;;10.58;9.40;;;;;;;14.24;70.82;97518.08;2223280;80;20914;-85